Flight Track Log - Related Links

Times and Time Zones

All times are in EDT time to prevent confusion due to time zone crossing. See the RPA3436 flight status page for this flight to view local times or setup timezone preferences in your user account.

Time Position Orientation Groundspeed Altitude Reporting Facility
EDT Latitude Longitude Course Direction KTS MPH feet Rate Location/Type
Thu 10:15:02 AM 38.9247 -77.1125 81° East 229 264 3,400  Level Washington Center
Thu 10:16:00 AM 39.0271 -76.5355 67° East  Level FlightAware Approximate
Thu 10:16:11 AM 39.0000 -77.1667 331° Northwest 293 337 6,200  Level Potomac TRACON
Thu 10:17:00 AM 39.0764 -76.4106 61° Northeast  Level FlightAware Approximate
Thu 10:17:11 AM 39.0500 -77.0833 52° Northeast 305 351 8,800  Level Potomac TRACON
Thu 10:18:00 AM 39.1167 -76.2837 90° East  Level FlightAware Approximate
Thu 10:19:00 AM 39.1556 -76.1607 83° East  Level FlightAware Approximate
Thu 10:19:03 AM 39.0669 -76.8856 84° East 328 377 11,700  Level Washington Center
Thu 10:20:00 AM 39.1682 -76.0214 81° East  Level FlightAware Approximate
Thu 10:20:01 AM 39.0828 -76.7628 81° East 334 384 14,200  Level Washington Center
Thu 10:21:02 AM 39.0986 -76.6347 81° East 340 391 15,700 1,623 Climbing Washington Center
Thu 10:22:03 AM 39.1142 -76.5092 81° East 351 404 17,500 1,636 Climbing Washington Center
Thu 10:23:03 AM 39.1317 -76.3731 81° East 364 419 19,000 1,475 Climbing Washington Center
Thu 10:24:01 AM 39.1472 -76.2339 82° East 380 437 20,400 1,412 Climbing Washington Center
Thu 10:25:02 AM 39.1625 -76.0922 82° East 390 449 21,800 1,289 Climbing Washington Center
Thu 10:26:02 AM 39.1817 -75.9478 80° East 390 449 23,000 1,190 Climbing Washington Center
Thu 10:27:03 AM 39.2467 -75.8139 58° Northeast 390 449 24,200 1,109 Climbing Washington Center
Thu 10:28:01 AM 39.3217 -75.7178 45° Northeast 396 456 25,200 1,119 Climbing Washington Center
Thu 10:29:01 AM 39.4136 -75.5997 45° Northeast 414 476 26,400 900 Climbing Washington Center
Thu 10:30:01 AM 39.4989 -75.4867 46° Northeast 424 488 27,000 298 Climbing Washington Center
Thu 10:31:02 AM 39.5822 -75.3761 46° Northeast 431 496 27,000  Level Washington Center
Thu 10:32:50 AM 39.7222 -75.1864 46° Northeast 430 495 27,000  Level New York Center
Thu 10:33:48 AM 39.8039 -75.0647 49° Northeast 430 495 27,000  Level New York Center
Thu 10:34:49 AM 39.8853 -74.9506 47° Northeast 430 495 27,000 -443 Level New York Center
Thu 10:35:50 AM 39.9664 -74.8361 47° Northeast 430 495 26,100 -992 Descending New York Center
Thu 10:36:50 AM 40.0542 -74.7083 48° Northeast 425 489 25,000 -550 Descending New York Center
Thu 10:37:50 AM 40.1319 -74.6206 41° Northeast 419 482 25,000  Level New York Center
Thu 10:38:48 AM 40.2294 -74.5092 41° Northeast 412 474 25,000  Level New York Center
Thu 10:39:48 AM 40.3094 -74.4181 41° Northeast 424 488 25,000  Level New York Center
Thu 10:40:48 AM 40.4067 -74.3061 41° Northeast 424 488 25,000  Level New York Center
Thu 10:41:49 AM 40.4886 -74.2122 41° Northeast 424 488 25,000 -143 Level New York Center
Thu 10:43:36 AM 40.6575 -74.0214 41° Northeast 427 491 24,600 -359 Descending Boston Center
Thu 10:44:36 AM 40.7422 -73.9219 42° Northeast 415 478 24,000 -300 Descending Boston Center
Thu 10:45:36 AM 40.8269 -73.8225 42° Northeast 410 472 24,000  Level Boston Center
Thu 10:46:36 AM 40.9114 -73.7200 43° Northeast 410 472 24,000 -400 Level Boston Center
Thu 10:47:36 AM 41.0019 -73.6256 38° Northeast 410 472 23,200 -500 Descending Boston Center
Thu 10:48:36 AM 41.1028 -73.5556 28° Northeast 410 472 23,000 -100 Descending Boston Center
Thu 10:49:36 AM 41.2056 -73.4858 27° Northeast 404 465 23,000 -700 Level Boston Center
Thu 10:50:36 AM 41.3042 -73.4183 27° Northeast 404 465 21,600 -1,750 Descending Boston Center
Thu 10:51:36 AM 41.4025 -73.3561 25° Northeast 399 459 19,500 -2,150 Descending Boston Center
Thu 10:52:36 AM 41.5006 -73.3686 355° North 363 418 17,300 -2,100 Descending Boston Center
Thu 10:53:36 AM 41.5897 -73.3950 348° North 353 406 15,300 -2,100 Descending Boston Center
Thu 10:54:36 AM 41.6939 -73.4214 349° North 353 406 13,100 -2,050 Descending Boston Center
Thu 10:55:36 AM 41.7769 -73.4394 351° North 348 400 11,200 -1,050 Descending Boston Center
Thu 10:56:36 AM 41.8767 -73.4689 348° North 330 380 11,000 -101 Descending Boston Center
Thu 10:57:35 AM 41.9619 -73.4869 351° North 329 379 11,000  Level Boston Center
Thu 10:58:05 AM 42.0119 -73.4992 350° North 329 379 11,000  Level Boston Center
Thu 10:58:36 AM 42.0556 -73.5139 346° North 335 386 11,000  Level Boston Center
Thu 10:59:12 AM 42.1056 -73.5258 350° North 326 375 11,000  Level Boston Center
Thu 11:00:12 AM 42.1953 -73.4967 14° North 331 381 11,000 -425 Level Boston Center
Thu 11:01:19 AM 42.2897 -73.4419 23° Northeast 327 376 10,100 -458 Descending Boston Center
Thu 11:02:36 AM 42.3858 -73.4097 14° North 303 349 9,900 -595 Descending Boston Center
Thu 11:03:20 AM 42.4397 -73.4500 331° Northwest 280 322 8,900 -1,314 Descending Boston Center
Thu 11:04:21 AM 42.5058 -73.5047 329° Northwest 279 321 7,600 -934 Descending Boston Center
Thu 11:05:22 AM 42.5700 -73.5650 325° Northwest 278 320 7,000 -595 Descending Boston Center
Thu 11:06:22 AM 42.6381 -73.6256 327° Northwest 274 315 6,400 -942 Descending Boston Center
Thu 11:07:23 AM 42.7064 -73.6719 333° Northwest 273 314 5,100 -1,388 Descending Boston Center
Thu 11:08:23 AM 42.7769 -73.6931 348° North 256 295 3,600 -1,500 Descending Boston Center

Login

Don't have an account? Register now (free) for customized features, flight alerts, and more!